KMGY

Dayton-Wright Brothers Airport

Dayton, Ohio, USA
METAR KMGY 270653Z AUTO 20004KT 10SM CLR 21/18 A2986 RMK AO2 SLP103 T02110183
Observed Flight Rules
May-27 @ 06:53 UTC (52 minutes ago) Visual Flight Rules
Wind Visibility Clouds
200° at 4 knots 10 miles
  • Clear skies
Temperatures Readings
Current 21°C / 70°F
Dewpoint 18°C / 64°F
Humidity 83%
Altimeter 29.86" Hg
Pressure 1010.3 hPa
Elevation 289
METAR KMGY 270653Z AUTO 20004KT 10SM CLR 21/18 A2986 RMK AO2 SLP103 T02110183
Observed Flight Rules
May-27 @ 06:53 UTC
(52 minutes ago)
VFR
Wind Visibility
200° at 4 knots 10 miles
Clouds
  • Clear skies
Temperature Dewpoint
21°C / 70°F 18°C / 64°F
Humidity Altimeter Pressure
83% 29.86" Hg 1010.3 hPa